Aeroporto :
LOGIN :

Iscrizione | Disclaimer

   EN    FR    IT 

 










Sommario :    VFR   VFR Marginale   IFR   IFR Intensivo   IFR Molto Intensivo
Visibilità : 
Base nubi : 
>= 8 km
>= 3000ft
5 / 8 km
1000 / 3000 ft
1500m / 5 km
500 / 1000 ft
800 / 1500m
200 / 500 ft
< 800m
< 200 ft
Simboli :   Temporali  Nebbia  Neve Forte  Precipitazioni Forti  Vento > 20 kt
SIGMETs :   Varie  Temporali  Ghiacco  Turbolenza  Onda orograficha  Ceneri Vulcaniche






- Altitudine del aeroporto : 72 ft
- Codice IATA : UDE


EHVK - Volkel Airbase

ULTIMO METAR :
  • 221255Z AUTO 14007KT 9999 OVC270 11/06 Q1004 BLU 14008KT CAVOK

METARs OBSOLETI :
  • 221225Z AUTO 16008KT 120V180 9999 OVC280 11/06 Q1004 BLU 14008KT CAVOK
  • 221155Z AUTO 15010KT 120V190 9999 BKN280 10/06 Q1004 BLU 14008KT CAVOK
  • 221125Z AUTO 15010KT 080V190 9999 NCD 10/06 Q1004 BLU 14008KT CAVOK
  • 221055Z AUTO 15010KT 120V190 9999 NCD 10/06 Q1004 BLU 14008KT CAVOK
  • 221025Z AUTO 15007KT 120V180 9999 FEW050 BKN150 09/06 Q1004 BLU 14008KT CAVOK

TAF TAF EHVK
Valido dal 22 a 10 ore il 22 a 22 ore UTC


220953Z 2210/2222 15009KT 9999 FEW017
BECMG 2214/2216 10010KT



MetMap, La meteo Aeronautica in un colpo d'occhio ! - Copyright ORBIFLY Dicembre 2007 - Disclaimer

ORBIFLY MET'MAP TEAM :

Programmazione e sviluppo : Alexandra Zaïnal
Concezione e sviluppo : Baudouin d'Aumeries
Co-Programmazione e sviluppo : Marc-Olivier Méhu
Supporto tecnico e logistico : Manuel Goepfert
Aiuto per la traduzione : Arnaldo La Scala

Contatto : metmap@orbifly.com




FONTI E CREDITI :

   NOAA